createdAt,value
2018-08-17T00:00:29.868Z,24.00
2018-08-17T00:02:57.321Z,24.00
2018-08-17T00:05:24.896Z,24.00
2018-08-17T00:07:52.250Z,24.00
2018-08-17T00:10:19.727Z,24.00
2018-08-17T00:12:47.198Z,24.00
2018-08-17T00:15:14.671Z,24.00
2018-08-17T00:17:42.133Z,24.00
2018-08-17T00:20:09.601Z,24.00
2018-08-17T00:22:37.060Z,24.00
2018-08-17T00:25:04.527Z,24.00
2018-08-17T00:27:31.987Z,24.00
2018-08-17T00:29:59.461Z,24.00
2018-08-17T00:32:26.924Z,24.00
2018-08-17T00:34:54.396Z,24.00
2018-08-17T00:37:21.862Z,24.00
2018-08-17T00:39:49.316Z,24.00
2018-08-17T00:42:16.851Z,24.00
2018-08-17T00:44:44.316Z,24.10
2018-08-17T00:47:11.772Z,24.00
2018-08-17T00:49:39.228Z,24.00
2018-08-17T00:52:06.688Z,24.00
2018-08-17T00:54:34.149Z,24.10
2018-08-17T00:57:01.612Z,24.00
2018-08-17T00:59:29.069Z,24.00
2018-08-17T01:01:56.540Z,24.00
2018-08-17T01:04:24.006Z,24.00
2018-08-17T01:06:51.460Z,24.00
2018-08-17T01:09:18.933Z,24.10
2018-08-17T01:11:46.414Z,24.00
2018-08-17T01:14:13.868Z,24.10
2018-08-17T01:16:41.469Z,24.00
2018-08-17T01:19:08.920Z,24.00
2018-08-17T01:21:36.391Z,24.10
2018-08-17T01:24:03.880Z,24.00
2018-08-17T01:26:31.332Z,24.00
2018-08-17T01:28:58.787Z,24.00
2018-08-17T01:31:26.249Z,24.00
2018-08-17T01:33:53.810Z,24.00
2018-08-17T01:36:21.376Z,24.00
2018-08-17T01:38:48.936Z,24.00
2018-08-17T01:41:16.409Z,24.00
2018-08-17T01:43:44.005Z,24.00
2018-08-17T01:46:11.495Z,24.00
2018-08-17T01:48:38.964Z,24.00
2018-08-17T01:51:06.415Z,24.00
2018-08-17T01:53:33.876Z,24.00
2018-08-17T01:56:01.328Z,24.00
2018-08-17T01:58:28.797Z,24.00
2018-08-17T02:00:56.248Z,24.00
2018-08-17T02:03:23.729Z,24.00
2018-08-17T02:05:51.177Z,24.00
2018-08-17T02:08:18.624Z,24.00
2018-08-17T02:10:46.068Z,24.00
2018-08-17T02:13:13.540Z,24.00
2018-08-17T02:15:40.996Z,24.00
2018-08-17T02:18:08.721Z,24.00
2018-08-17T02:20:36.176Z,24.00
2018-08-17T02:23:03.632Z,24.00
2018-08-17T02:25:31.080Z,24.00
2018-08-17T02:27:58.532Z,24.00
2018-08-17T02:30:26.072Z,24.00
2018-08-17T02:32:53.721Z,24.00
2018-08-17T02:35:21.284Z,24.00
2018-08-17T02:37:48.776Z,24.00
2018-08-17T02:40:16.241Z,24.00
2018-08-17T02:42:43.864Z,24.00
2018-08-17T02:45:11.332Z,24.00
2018-08-17T02:47:38.784Z,24.00
2018-08-17T02:50:06.519Z,24.00
2018-08-17T02:52:33.967Z,24.00
2018-08-17T02:55:01.429Z,24.00
2018-08-17T02:57:28.897Z,24.00
2018-08-17T02:59:56.387Z,24.00
2018-08-17T03:02:23.847Z,24.00
2018-08-17T03:04:51.319Z,24.00
2018-08-17T03:07:18.824Z,24.00
2018-08-17T03:09:46.280Z,24.00
2018-08-17T03:12:13.732Z,24.00
2018-08-17T03:14:41.193Z,24.00
2018-08-17T03:17:08.649Z,24.00
2018-08-17T03:19:36.123Z,24.00
2018-08-17T03:22:03.608Z,24.00
2018-08-17T03:24:31.143Z,24.00
2018-08-17T03:26:58.719Z,24.00
2018-08-17T03:29:26.179Z,24.00
2018-08-17T03:31:53.640Z,24.00
2018-08-17T03:34:21.099Z,24.00
2018-08-17T03:36:48.571Z,24.00
2018-08-17T03:39:16.196Z,24.00
2018-08-17T03:41:43.656Z,24.00
2018-08-17T03:44:11.152Z,24.00
2018-08-17T03:46:38.611Z,24.00
2018-08-17T03:49:06.063Z,24.00
2018-08-17T03:51:33.692Z,24.00
2018-08-17T03:54:01.163Z,24.00
2018-08-17T03:56:28.622Z,24.00
2018-08-17T03:58:56.072Z,24.00
2018-08-17T04:01:23.531Z,24.00
2018-08-17T04:03:50.984Z,24.00
2018-08-17T04:06:18.436Z,24.00
2018-08-17T04:08:46.132Z,24.00
2018-08-17T04:11:13.592Z,24.00
2018-08-17T04:13:41.055Z,24.00
2018-08-17T04:16:09.049Z,24.00
2018-08-17T04:18:36.517Z,24.00
2018-08-17T04:21:04.036Z,24.00
2018-08-17T04:23:31.500Z,24.00
2018-08-17T04:25:58.952Z,24.00
2018-08-17T04:28:26.413Z,24.00
2018-08-17T04:30:53.977Z,24.00
2018-08-17T04:33:21.459Z,24.00
2018-08-17T04:35:49.432Z,24.00
2018-08-17T04:38:16.905Z,24.00
2018-08-17T04:40:44.357Z,24.00
2018-08-17T04:43:11.859Z,24.00
2018-08-17T04:45:39.317Z,24.00
2018-08-17T04:48:06.880Z,24.00
2018-08-17T04:50:34.333Z,24.00
2018-08-17T04:53:01.856Z,24.00
2018-08-17T04:55:29.334Z,23.90
2018-08-17T04:57:56.984Z,23.90
2018-08-17T05:00:24.439Z,24.00
2018-08-17T05:02:51.888Z,24.00
2018-08-17T05:05:19.491Z,24.00
2018-08-17T05:07:46.935Z,23.90
2018-08-17T05:10:14.457Z,24.00
2018-08-17T05:12:41.907Z,23.90
2018-08-17T05:15:09.362Z,23.90
2018-08-17T05:17:36.803Z,23.90
2018-08-17T05:20:04.660Z,23.90
2018-08-17T05:22:42.833Z,23.90
2018-08-17T05:25:10.316Z,24.00
2018-08-17T05:27:37.781Z,23.90
2018-08-17T05:30:05.252Z,23.90
2018-08-17T05:32:32.728Z,23.90
2018-08-17T05:35:00.202Z,23.90
2018-08-17T05:37:27.673Z,23.90
2018-08-17T05:39:55.139Z,23.90
2018-08-17T05:42:22.607Z,23.90
2018-08-17T05:44:50.058Z,23.90
2018-08-17T05:47:17.524Z,23.90
2018-08-17T05:49:45.050Z,23.90
2018-08-17T05:52:12.505Z,23.90
2018-08-17T05:54:39.976Z,23.90
2018-08-17T05:57:07.452Z,23.90
2018-08-17T05:59:35.072Z,23.90
2018-08-17T06:02:02.583Z,23.90
2018-08-17T06:04:30.050Z,23.90
2018-08-17T06:06:57.506Z,24.00
2018-08-17T06:09:25.144Z,23.90
2018-08-17T06:11:52.596Z,23.90
2018-08-17T06:14:20.133Z,23.90
2018-08-17T06:16:47.796Z,23.90
2018-08-17T06:19:15.797Z,23.90
2018-08-17T06:21:43.228Z,23.90
2018-08-17T06:24:10.706Z,23.90
2018-08-17T06:26:38.212Z,23.90
2018-08-17T06:29:05.814Z,23.90
2018-08-17T06:31:33.315Z,23.90
2018-08-17T06:34:00.778Z,23.90
2018-08-17T06:36:28.251Z,23.90
2018-08-17T06:38:55.736Z,23.90
2018-08-17T06:42:15.206Z,23.90
2018-08-17T06:44:42.768Z,23.90
2018-08-17T06:47:11.343Z,23.90
2018-08-17T06:49:38.923Z,23.80
2018-08-17T06:52:06.426Z,23.70
2018-08-17T06:54:33.944Z,23.70
2018-08-17T06:57:01.464Z,23.60
2018-08-17T06:59:28.924Z,23.60
2018-08-17T07:01:56.388Z,23.50
2018-08-17T07:04:23.848Z,23.50
2018-08-17T07:06:51.304Z,23.50
2018-08-17T07:09:18.915Z,23.40
2018-08-17T07:11:46.319Z,23.40
2018-08-17T07:14:13.845Z,23.40
2018-08-17T07:16:51.162Z,23.40
2018-08-17T07:19:18.692Z,23.40
2018-08-17T07:21:46.152Z,23.40
2018-08-17T07:24:13.751Z,23.40
2018-08-17T07:26:41.208Z,23.40
2018-08-17T07:29:08.668Z,23.50
2018-08-17T07:31:36.159Z,23.40
2018-08-17T07:34:03.644Z,23.50
2018-08-17T07:36:31.344Z,23.50
2018-08-17T07:38:58.796Z,23.50
2018-08-17T07:41:26.553Z,23.50
2018-08-17T07:43:54.041Z,23.60
2018-08-17T07:46:22.284Z,23.60
2018-08-17T07:48:49.764Z,23.70
2018-08-17T07:51:17.231Z,23.70
2018-08-17T07:53:45.315Z,23.70
2018-08-17T07:56:13.095Z,23.70
2018-08-17T07:58:40.672Z,23.70
2018-08-17T08:01:08.152Z,23.70
2018-08-17T08:03:35.624Z,23.80
2018-08-17T08:06:03.084Z,23.80
2018-08-17T08:08:30.632Z,23.80
2018-08-17T08:10:58.168Z,23.90
2018-08-17T08:13:25.620Z,23.80
2018-08-17T08:15:53.120Z,23.90
2018-08-17T08:18:20.889Z,23.90
2018-08-17T08:20:48.355Z,23.90
2018-08-17T08:23:19.713Z,23.90
2018-08-17T08:25:47.189Z,23.90
2018-08-17T08:28:14.652Z,23.90
2018-08-17T08:30:42.143Z,23.90
2018-08-17T08:33:09.600Z,23.90
2018-08-17T08:35:37.079Z,23.90
2018-08-17T08:38:04.537Z,23.90
2018-08-17T08:40:32.016Z,23.90
2018-08-17T08:42:59.541Z,23.90
2018-08-17T08:45:27.015Z,23.90
2018-08-17T08:47:54.501Z,23.90
2018-08-17T08:50:22.104Z,23.90
2018-08-17T08:52:49.761Z,23.90
2018-08-17T08:55:17.475Z,23.90
2018-08-17T08:57:45.276Z,23.90
2018-08-17T09:00:13.200Z,23.90
2018-08-17T09:02:41.643Z,24.00
2018-08-17T09:05:09.723Z,23.90
2018-08-17T09:07:37.578Z,23.90
2018-08-17T09:10:06.325Z,24.00
2018-08-17T09:12:34.400Z,24.00
2018-08-17T09:15:02.528Z,24.00
2018-08-17T09:17:30.471Z,24.00
2018-08-17T09:19:58.308Z,24.00
2018-08-17T09:22:26.124Z,24.00
2018-08-17T09:24:54.005Z,24.00
2018-08-17T09:27:21.844Z,24.00
2018-08-17T09:29:49.670Z,24.00
2018-08-17T09:32:17.844Z,24.00
2018-08-17T09:34:45.739Z,24.00
2018-08-17T09:37:13.601Z,24.00
2018-08-17T09:39:41.293Z,24.00
2018-08-17T09:42:09.305Z,24.00
2018-08-17T09:44:37.142Z,24.00
2018-08-17T09:47:05.289Z,24.00
2018-08-17T09:49:33.197Z,24.00
2018-08-17T09:52:01.053Z,24.10
2018-08-17T09:54:28.858Z,24.10
2018-08-17T09:56:56.688Z,24.10
2018-08-17T09:59:24.548Z,24.00
2018-08-17T10:01:57.690Z,24.10
2018-08-17T10:04:31.112Z,24.10
2018-08-17T10:07:09.949Z,24.10
2018-08-17T10:09:43.597Z,24.10
2018-08-17T10:12:11.430Z,24.10
2018-08-17T10:14:39.167Z,24.10
2018-08-17T10:17:07.228Z,24.10
2018-08-17T10:19:35.136Z,24.10
2018-08-17T10:22:03.186Z,24.10
2018-08-17T10:24:31.137Z,24.10
2018-08-17T10:26:59.045Z,24.10
2018-08-17T10:29:27.155Z,24.10
2018-08-17T10:31:56.434Z,24.10
2018-08-17T10:34:24.217Z,24.10
2018-08-17T10:36:52.221Z,24.20
2018-08-17T10:39:20.053Z,24.10
2018-08-17T10:41:48.144Z,24.20
2018-08-17T10:44:16.111Z,24.20
2018-08-17T10:46:45.697Z,24.20
2018-08-17T10:49:13.785Z,24.10
2018-08-17T10:51:41.764Z,24.20
2018-08-17T10:54:09.565Z,24.20
2018-08-17T10:56:37.516Z,24.20
2018-08-17T10:59:05.521Z,24.20
2018-08-17T11:01:33.381Z,24.20
2018-08-17T11:04:01.125Z,24.20
2018-08-17T11:06:29.092Z,24.20
2018-08-17T11:08:57.140Z,24.20
2018-08-17T11:11:25.127Z,24.20
2018-08-17T11:13:53.120Z,24.20
2018-08-17T11:16:21.280Z,24.20
2018-08-17T11:18:49.771Z,24.20
2018-08-17T11:21:17.789Z,24.20
2018-08-17T11:23:45.826Z,24.20
2018-08-17T11:26:13.776Z,24.20
2018-08-17T11:28:41.633Z,24.20
2018-08-17T11:31:09.642Z,24.20
2018-08-17T11:33:37.433Z,24.20
2018-08-17T11:36:05.339Z,24.20
2018-08-17T11:38:33.331Z,24.20
2018-08-17T11:41:01.358Z,24.20
2018-08-17T11:43:29.438Z,24.20
2018-08-17T11:45:57.289Z,24.20
2018-08-17T11:48:30.541Z,24.20
2018-08-17T11:50:58.333Z,24.20
2018-08-17T11:53:26.272Z,24.20
2018-08-17T11:55:54.480Z,24.20
2018-08-17T11:58:22.644Z,24.20
2018-08-17T12:00:51.442Z,24.20
2018-08-17T12:03:19.379Z,24.20
2018-08-17T12:05:47.160Z,24.20
2018-08-17T12:08:15.184Z,24.20
2018-08-17T12:10:43.300Z,24.10
2018-08-17T12:13:16.451Z,24.20
2018-08-17T12:16:00.927Z,24.20
2018-08-17T12:18:28.785Z,24.20
2018-08-17T12:20:56.621Z,24.10
2018-08-17T12:23:24.859Z,24.20
2018-08-17T12:25:57.283Z,24.20
2018-08-17T12:28:26.712Z,24.20
2018-08-17T12:30:54.666Z,24.10
2018-08-17T12:33:22.676Z,24.20
2018-08-17T12:35:51.899Z,24.10
2018-08-17T12:38:19.857Z,24.20
2018-08-17T12:40:49.293Z,24.20
2018-08-17T12:43:18.577Z,24.10
2018-08-17T12:45:46.706Z,24.10
2018-08-17T12:48:15.611Z,24.20
2018-08-17T12:50:44.152Z,24.20
2018-08-17T12:53:12.608Z,24.20
2018-08-17T12:55:45.044Z,24.10
2018-08-17T12:58:13.612Z,24.20
2018-08-17T13:00:41.488Z,24.20
2018-08-17T13:03:09.728Z,24.20
2018-08-17T13:05:38.125Z,24.20
2018-08-17T13:08:07.587Z,24.20
2018-08-17T13:10:35.403Z,24.20
2018-08-17T13:13:07.137Z,24.20
2018-08-17T13:15:35.282Z,24.20
2018-08-17T13:18:04.090Z,24.20
2018-08-17T13:20:32.156Z,24.20
2018-08-17T13:23:00.305Z,24.20
2018-08-17T13:25:28.277Z,24.20
2018-08-17T13:27:56.191Z,24.20
2018-08-17T13:30:24.209Z,24.20
2018-08-17T13:32:52.119Z,24.20
2018-08-17T13:35:20.885Z,24.20
2018-08-17T13:37:48.810Z,24.20
2018-08-17T13:40:16.712Z,24.20
2018-08-17T13:42:44.701Z,24.20
2018-08-17T13:45:12.600Z,24.20
2018-08-17T13:47:40.607Z,24.20
2018-08-17T13:50:08.810Z,24.20
2018-08-17T13:52:36.284Z,24.20
2018-08-17T13:55:03.770Z,24.20
2018-08-17T13:57:31.383Z,24.20
2018-08-17T13:59:58.866Z,24.20
2018-08-17T14:02:26.798Z,24.20
2018-08-17T14:04:54.690Z,24.20
2018-08-17T14:07:22.852Z,24.20
2018-08-17T14:09:50.716Z,24.20
2018-08-17T14:12:18.510Z,24.20
2018-08-17T14:14:46.606Z,24.20
2018-08-17T14:17:14.572Z,24.20
2018-08-17T14:19:42.466Z,24.20
2018-08-17T14:22:11.416Z,24.20
2018-08-17T14:24:39.345Z,24.20
2018-08-17T14:27:07.316Z,24.20
2018-08-17T14:29:35.220Z,24.20
2018-08-17T14:32:03.169Z,24.20
2018-08-17T14:34:31.186Z,24.20
2018-08-17T14:36:58.885Z,24.20
2018-08-17T14:39:27.070Z,24.20
2018-08-17T14:41:57.287Z,24.20
2018-08-17T14:44:25.736Z,24.20
2018-08-17T14:46:53.900Z,24.20
2018-08-17T14:49:22.589Z,24.20
2018-08-17T14:51:51.527Z,24.20
2018-08-17T14:54:19.567Z,24.20
2018-08-17T14:56:47.483Z,24.20
2018-08-17T14:59:16.112Z,24.20
2018-08-17T15:01:44.317Z,24.20
2018-08-17T15:04:12.450Z,24.20
2018-08-17T15:06:40.830Z,24.30
2018-08-17T15:09:09.931Z,24.30
2018-08-17T15:11:38.312Z,24.20
2018-08-17T15:14:06.445Z,24.30
2018-08-17T15:16:34.490Z,24.30
2018-08-17T15:19:02.553Z,24.20
2018-08-17T15:21:30.423Z,24.30
2018-08-17T15:23:58.432Z,24.30
2018-08-17T15:26:26.513Z,24.30
2018-08-17T15:28:54.406Z,24.30
2018-08-17T15:31:22.237Z,24.30
2018-08-17T15:33:52.299Z,24.30
2018-08-17T15:36:20.443Z,24.30
2018-08-17T15:38:48.812Z,24.30
2018-08-17T15:41:16.876Z,24.30
2018-08-17T15:43:44.638Z,24.30
2018-08-17T15:46:12.551Z,24.30
2018-08-17T15:48:52.657Z,24.30
2018-08-17T15:51:20.688Z,24.30
2018-08-17T15:53:48.939Z,24.30
2018-08-17T15:56:17.221Z,24.30
2018-08-17T15:58:45.160Z,24.30
2018-08-17T16:01:13.541Z,24.30
2018-08-17T16:03:51.565Z,24.30
2018-08-17T16:06:19.781Z,24.30
2018-08-17T16:08:47.962Z,24.30
2018-08-17T16:11:15.801Z,24.30
2018-08-17T16:13:43.841Z,24.30
2018-08-17T16:16:11.793Z,24.30
2018-08-17T16:18:39.997Z,24.30
2018-08-17T16:21:08.051Z,24.30
2018-08-17T16:23:36.153Z,24.30
2018-08-17T16:26:04.566Z,24.30
2018-08-17T16:28:32.474Z,24.30
2018-08-17T16:31:00.377Z,24.30
2018-08-17T16:33:28.363Z,24.30
2018-08-17T16:35:56.375Z,24.30
2018-08-17T16:38:24.155Z,24.30
2018-08-17T16:40:53.004Z,24.30
2018-08-17T16:43:21.568Z,24.30
2018-08-17T16:45:49.339Z,24.30
2018-08-17T16:48:17.442Z,24.30
2018-08-17T16:50:44.893Z,24.30
2018-08-17T16:53:12.345Z,24.30
2018-08-17T16:55:39.819Z,24.30
2018-08-17T16:58:07.276Z,24.30
2018-08-17T17:00:34.863Z,24.40
2018-08-17T17:03:02.248Z,24.30
2018-08-17T17:05:29.802Z,24.30
2018-08-17T17:07:58.592Z,24.30
2018-08-17T17:10:27.681Z,24.30
2018-08-17T17:12:55.320Z,24.30
2018-08-17T17:15:23.074Z,24.40
2018-08-17T17:17:56.945Z,24.30
2018-08-17T17:20:24.629Z,24.30
2018-08-17T17:22:52.459Z,24.30
2018-08-17T17:25:20.675Z,24.30
2018-08-17T17:27:49.833Z,24.30
2018-08-17T17:30:18.078Z,24.30
2018-08-17T17:32:47.014Z,24.40
2018-08-17T17:35:14.929Z,24.30
2018-08-17T17:37:59.013Z,24.30
2018-08-17T17:40:26.464Z,24.30
2018-08-17T17:42:53.935Z,24.30
2018-08-17T17:45:22.150Z,24.40
2018-08-17T17:47:50.336Z,24.40
2018-08-17T17:50:18.195Z,24.30
2018-08-17T17:52:45.989Z,24.40
2018-08-17T17:55:13.943Z,24.30
2018-08-17T17:57:41.943Z,24.40
2018-08-17T18:00:10.005Z,24.40
2018-08-17T18:02:37.849Z,24.40
2018-08-17T18:05:05.592Z,24.50
2018-08-17T18:07:38.781Z,24.40
2018-08-17T18:10:06.854Z,24.50
2018-08-17T18:12:34.977Z,24.40
2018-08-17T18:15:03.129Z,24.40
2018-08-17T18:17:31.226Z,24.40
2018-08-17T18:19:59.465Z,24.40
2018-08-17T18:22:31.078Z,24.40
2018-08-17T18:25:04.105Z,24.40
2018-08-17T18:27:32.039Z,24.50
2018-08-17T18:30:00.180Z,24.50
2018-08-17T18:32:28.604Z,24.50
2018-08-17T18:34:56.627Z,24.50
2018-08-17T18:37:24.699Z,24.40
2018-08-17T18:39:52.740Z,24.50
2018-08-17T18:42:20.808Z,24.50
2018-08-17T18:44:48.651Z,24.50
2018-08-17T18:47:16.593Z,24.50
2018-08-17T18:49:44.486Z,24.50
2018-08-17T18:52:12.576Z,24.50
2018-08-17T18:54:40.540Z,24.50
2018-08-17T18:57:08.386Z,24.50
2018-08-17T18:59:36.326Z,24.50
2018-08-17T19:02:04.357Z,24.50
2018-08-17T19:04:32.351Z,24.50
2018-08-17T19:07:00.368Z,24.50
2018-08-17T19:09:28.411Z,24.50
2018-08-17T19:11:56.257Z,24.50
2018-08-17T19:14:24.240Z,24.50
2018-08-17T19:16:52.097Z,24.50
2018-08-17T19:19:20.099Z,24.50
2018-08-17T19:21:47.902Z,24.50
2018-08-17T19:24:15.897Z,24.40
2018-08-17T19:26:44.072Z,24.50
2018-08-17T19:29:12.059Z,24.50
2018-08-17T19:31:46.137Z,24.40
2018-08-17T19:34:14.551Z,24.50
2018-08-17T19:36:42.617Z,24.50
2018-08-17T19:39:14.636Z,24.50
2018-08-17T19:41:42.666Z,24.40
2018-08-17T19:44:10.649Z,24.40
2018-08-17T19:46:39.019Z,24.40
2018-08-17T19:49:07.183Z,24.40
2018-08-17T19:51:35.290Z,24.40
2018-08-17T19:54:03.215Z,24.40
2018-08-17T19:56:31.100Z,24.40
2018-08-17T19:58:59.103Z,24.40
2018-08-17T20:01:27.621Z,24.40
2018-08-17T20:03:55.506Z,24.40
2018-08-17T20:06:23.904Z,24.40
2018-08-17T20:08:51.817Z,24.40
2018-08-17T20:11:20.034Z,24.40
2018-08-17T20:13:47.925Z,24.40
2018-08-17T20:16:25.328Z,24.40
2018-08-17T20:18:53.178Z,24.40
2018-08-17T20:21:21.598Z,24.40
2018-08-17T20:23:49.634Z,24.40
2018-08-17T20:26:17.739Z,24.40
2018-08-17T20:28:45.582Z,24.40
2018-08-17T20:31:13.597Z,24.40
2018-08-17T20:33:41.512Z,24.50
2018-08-17T20:36:13.487Z,24.40
2018-08-17T20:38:41.028Z,24.40
2018-08-17T20:41:08.619Z,24.40
2018-08-17T20:43:36.148Z,24.40
2018-08-17T20:46:03.621Z,24.40
2018-08-17T20:48:31.349Z,24.50
2018-08-17T20:50:59.825Z,24.40
2018-08-17T20:53:27.402Z,24.50
2018-08-17T20:55:55.102Z,24.50
2018-08-17T20:58:22.728Z,24.50
2018-08-17T21:00:50.415Z,24.40
2018-08-17T21:03:17.956Z,24.50
2018-08-17T21:05:45.472Z,24.50
2018-08-17T21:08:13.108Z,24.50
2018-08-17T21:10:40.669Z,24.50
2018-08-17T21:13:08.308Z,24.50
2018-08-17T21:15:35.796Z,24.50
2018-08-17T21:18:03.281Z,24.50
2018-08-17T21:20:30.736Z,24.50
2018-08-17T21:22:58.324Z,24.50
2018-08-17T21:25:25.866Z,24.50
2018-08-17T21:27:53.320Z,24.50
2018-08-17T21:30:20.855Z,24.50
2018-08-17T21:32:48.420Z,24.50
2018-08-17T21:35:15.885Z,24.50
2018-08-17T21:37:43.344Z,24.50
2018-08-17T21:40:15.620Z,24.50
2018-08-17T21:42:43.103Z,24.50
2018-08-17T21:45:10.561Z,24.50
2018-08-17T21:47:38.037Z,24.50
2018-08-17T21:50:10.991Z,24.50
2018-08-17T21:52:38.464Z,24.50
2018-08-17T21:55:06.016Z,24.50
2018-08-17T21:57:39.026Z,24.50
2018-08-17T22:00:08.848Z,24.50
2018-08-17T22:02:36.331Z,24.50
2018-08-17T22:05:03.808Z,24.50
2018-08-17T22:07:31.358Z,24.50
2018-08-17T22:09:58.849Z,24.50
2018-08-17T22:12:26.392Z,24.50
2018-08-17T22:14:53.860Z,24.50
2018-08-17T22:17:28.260Z,24.50
2018-08-17T22:19:55.724Z,24.50
2018-08-17T22:22:23.211Z,24.50
2018-08-17T22:24:56.639Z,24.50
2018-08-17T22:27:25.101Z,24.50
2018-08-17T22:29:53.764Z,24.50
2018-08-17T22:32:21.600Z,24.50
2018-08-17T22:34:49.583Z,24.50
2018-08-17T22:37:17.352Z,24.50
2018-08-17T22:39:44.839Z,24.50
2018-08-17T22:42:12.519Z,24.50
2018-08-17T22:44:39.993Z,24.50
2018-08-17T22:47:24.140Z,24.50
2018-08-17T22:49:53.114Z,24.50
2018-08-17T22:52:20.712Z,24.50
2018-08-17T22:54:53.778Z,24.50
2018-08-17T22:57:21.396Z,24.50
2018-08-17T22:59:55.740Z,24.50
2018-08-17T23:02:23.200Z,24.40
2018-08-17T23:04:50.660Z,24.50
2018-08-17T23:07:18.121Z,24.50
2018-08-17T23:09:45.586Z,24.50
2018-08-17T23:12:13.048Z,24.50
2018-08-17T23:14:40.531Z,24.50
2018-08-17T23:17:08.001Z,24.50
2018-08-17T23:19:35.557Z,24.50
2018-08-17T23:22:03.107Z,24.50
2018-08-17T23:24:30.599Z,24.50
2018-08-17T23:26:58.044Z,24.50
2018-08-17T23:29:25.513Z,24.50
2018-08-17T23:31:52.992Z,24.50
2018-08-17T23:34:20.456Z,24.50
2018-08-17T23:36:47.921Z,24.50
2018-08-17T23:39:15.409Z,24.50
2018-08-17T23:41:42.884Z,24.50
2018-08-17T23:44:10.349Z,24.50
2018-08-17T23:46:37.813Z,24.50
2018-08-17T23:49:05.281Z,24.50
2018-08-17T23:51:32.780Z,24.50
2018-08-17T23:54:00.249Z,24.50
2018-08-17T23:56:27.709Z,24.50
2018-08-17T23:58:55.176Z,24.50
